Time;durP1;ratioP1;P1;durP2;ratioP2;P2;SDS_P1;SDS_P2;PMS_P1;PMS_P2;Temp;Humidity;BMP_temperature;BMP_pressure;BME280_temperature;BME280_humidity;BME280_pressure;Samples;Min_cycle;Max_cycle;Signal;HPM_P1;HPM_P2
2020/12/03 00:00:45;;;;;;;49.23;29.63;;;-0.10;99.90;;;0.66;84.33;97447.31;5111758;28;20193;-78
2020/12/03 00:03:22;;;;;;;45.87;28.83;;;-0.10;99.90;;;0.68;84.06;97443.28;5123210;28;20224;-79
2020/12/03 00:05:59;;;;;;;46.07;27.77;;;-0.10;99.90;;;0.69;84.14;97435.00;5123851;28;20211;-78
2020/12/03 00:08:38;;;;;;;46.30;28.90;;;-0.10;99.90;;;0.72;84.44;97434.38;5119469;29;20220;-78
2020/12/03 00:11:10;;;;;;;43.93;28.53;;;-0.10;99.90;;;0.72;84.25;97432.75;5122162;28;20249;-78
2020/12/03 00:13:42;;;;;;;43.97;27.57;;;-0.10;99.90;;;0.71;84.26;97433.47;5125472;28;20212;-78
2020/12/03 00:16:15;;;;;;;48.20;28.30;;;-0.10;99.90;;;0.68;83.71;97428.19;5123378;28;20220;-78
2020/12/03 00:18:47;;;;;;;46.00;29.67;;;-0.10;99.90;;;0.70;84.27;97425.81;5119043;28;20202;-78
2020/12/03 00:21:31;;;;;;;46.00;29.60;;;-0.10;99.90;;;0.70;84.38;97419.16;5121458;29;20228;-78
2020/12/03 00:24:07;;;;;;;43.87;27.50;;;-0.10;99.90;;;0.72;85.09;97430.25;5123043;28;20201;-78
2020/12/03 00:26:39;;;;;;;47.27;28.83;;;0.00;99.90;;;0.65;82.94;97407.81;5124977;28;20200;-78
2020/12/03 00:29:12;;;;;;;45.60;28.63;;;-0.10;99.90;;;0.65;84.00;97417.84;5124551;28;20215;-78
2020/12/03 00:31:44;;;;;;;45.37;26.63;;;-0.10;99.90;;;0.69;83.78;97409.84;5123158;28;20217;-80
2020/12/03 00:34:18;;;;;;;43.33;28.23;;;-0.10;99.90;;;0.67;83.24;97401.28;5122642;28;20200;-78
2020/12/03 00:36:50;;;;;;;44.47;29.00;;;-0.20;99.90;;;0.68;84.14;97405.56;5123898;28;20255;-79
2020/12/03 00:39:24;;;;;;;43.80;27.83;;;-0.10;99.90;;;0.66;84.61;97409.59;5120300;28;20563;-79
2020/12/03 00:41:57;;;;;;;47.50;28.40;;;-0.10;99.90;;;0.71;85.07;97415.00;5122213;28;20259;-80
2020/12/03 00:44:29;;;;;;;46.60;28.50;;;-0.10;99.90;;;0.73;85.04;97405.97;5124903;28;20205;-78
2020/12/03 00:47:01;;;;;;;41.80;27.60;;;0.00;99.90;;;0.76;85.00;97417.16;5122521;28;20198;-79
2020/12/03 00:49:33;;;;;;;44.93;28.03;;;-0.10;99.90;;;0.72;84.54;97404.22;5113541;28;20205;-80
2020/12/03 00:52:05;;;;;;;43.50;28.27;;;0.00;99.90;;;0.76;84.31;97411.25;5114513;28;20230;-79
2020/12/03 00:54:37;;;;;;;44.37;29.20;;;-0.10;99.90;;;0.73;83.56;97406.84;5125401;28;20652;-79
2020/12/03 00:57:10;;;;;;;43.40;28.63;;;-0.10;99.90;;;0.73;83.87;97408.47;5123720;28;20232;-80
2020/12/03 00:59:42;;;;;;;46.57;28.87;;;-0.10;99.90;;;0.70;83.63;97400.66;5125259;28;20201;-80
2020/12/03 01:02:16;;;;;;;48.00;29.37;;;-0.10;99.90;;;0.68;83.23;97400.53;5123640;28;20235;-79
2020/12/03 01:04:48;;;;;;;45.90;27.93;;;-0.20;99.90;;;0.72;83.48;97402.56;5124825;29;20745;-79
2020/12/03 01:07:20;;;;;;;43.80;28.67;;;-0.10;99.90;;;0.72;83.54;97395.03;5120045;28;20209;-79
2020/12/03 01:09:53;;;;;;;44.53;28.60;;;-0.10;99.90;;;0.71;84.08;97395.75;5104792;29;20201;-80
2020/12/03 01:12:25;;;;;;;43.67;27.00;;;-0.10;99.90;;;0.85;81.12;97391.94;5123501;28;20601;-79
2020/12/03 01:14:58;;;;;;;44.07;27.87;;;-0.10;99.90;;;0.73;81.38;97396.78;5124376;28;20209;-80
2020/12/03 01:17:30;;;;;;;46.27;28.27;;;-0.10;99.90;;;0.53;81.71;97396.69;5123230;28;20227;-78
2020/12/03 01:20:06;;;;;;;42.90;27.77;;;-0.30;99.90;;;0.56;82.79;97396.94;5124184;28;20201;-79
2020/12/03 01:22:38;;;;;;;47.07;27.33;;;-0.20;99.90;;;0.59;83.14;97392.19;5123637;28;20232;-78
2020/12/03 01:25:11;;;;;;;45.40;29.10;;;-0.20;99.90;;;0.52;82.41;97403.34;5124540;28;20310;-80
2020/12/03 01:27:43;;;;;;;44.43;28.00;;;-0.30;99.90;;;0.49;82.58;97395.53;5122970;28;20196;-78
2020/12/03 01:30:17;;;;;;;47.50;29.17;;;-0.30;99.90;;;0.55;83.07;97403.63;5123564;29;20207;-78
2020/12/03 01:32:50;;;;;;;42.17;27.13;;;-0.30;99.90;;;0.53;83.01;97401.72;5123203;28;20224;-80
2020/12/03 01:35:22;;;;;;;46.73;29.23;;;-0.30;99.90;;;0.58;83.50;97397.97;5124832;28;20196;-80
2020/12/03 01:37:55;;;;;;;49.83;29.37;;;-0.20;99.90;;;0.65;82.88;97397.75;5122715;28;20224;-79
2020/12/03 01:40:28;;;;;;;49.40;29.90;;;-0.20;99.90;;;0.61;82.54;97395.72;5123462;29;20219;-78
2020/12/03 01:43:00;;;;;;;44.97;28.27;;;-0.20;99.90;;;0.44;81.70;97381.69;5122983;28;20230;-80
2020/12/03 01:45:53;;;;;;;47.00;28.30;;;-0.40;99.90;;;0.42;81.42;97379.00;5122199;28;20204;-78
2020/12/03 01:48:34;;;;;;;45.10;28.13;;;-0.40;99.90;;;0.39;81.78;97376.22;5109594;29;20203;-79
2020/12/03 01:51:15;;;;;;;47.57;28.40;;;-0.40;99.90;;;0.45;80.80;97384.31;5114010;28;20729;-79
2020/12/03 01:53:47;;;;;;;49.00;28.43;;;-0.40;99.90;;;0.37;80.82;97387.81;5123342;28;20200;-79
2020/12/03 01:57:00;;;;;;;42.77;27.60;;;-0.40;99.90;;;0.24;81.81;97376.53;5122388;28;20296;-80
2020/12/03 01:59:36;;;;;;;44.23;28.57;;;-0.50;99.90;;;0.29;81.77;97373.69;5087372;29;20212;-79
2020/12/03 02:02:12;;;;;;;46.50;28.23;;;-0.50;99.90;;;0.30;82.77;97367.91;5200424;22;20242;-81
2020/12/03 02:05:11;;;;;;;43.70;27.70;;;-0.50;99.90;;;0.25;81.97;97365.72;5259100;28;20671;-81
2020/12/03 02:07:44;;;;;;;47.30;29.37;;;-0.50;99.90;;;0.21;82.95;97357.03;5247708;28;20207;-81
2020/12/03 02:10:20;;;;;;;47.47;28.77;;;-0.50;99.90;;;0.26;83.15;97362.44;5244258;28;20666;-81
2020/12/03 02:12:54;;;;;;;48.37;29.87;;;-0.50;99.90;;;0.29;83.37;97358.59;5228859;28;20232;-81
2020/12/03 02:15:26;;;;;;;46.77;28.23;;;-0.40;99.90;;;0.30;83.41;97357.84;5224179;28;20206;-81
2020/12/03 02:17:58;;;;;;;48.00;28.00;;;-0.40;99.90;;;0.31;83.02;97352.06;5226026;28;20233;-81
2020/12/03 02:20:31;;;;;;;49.50;29.13;;;-0.40;99.90;;;0.28;83.32;97355.94;5226258;28;20215;-81
2020/12/03 02:23:14;;;;;;;52.13;31.13;;;-0.40;99.90;;;0.27;83.45;97361.72;5226256;28;20217;-81
2020/12/03 02:25:46;;;;;;;46.33;28.60;;;-0.40;99.90;;;0.25;83.98;97349.00;5212125;28;20194;-80
2020/12/03 02:28:18;;;;;;;44.63;28.10;;;-0.40;99.90;;;0.20;83.36;97343.59;5209642;28;20386;-81
2020/12/03 02:30:50;;;;;;;49.43;30.40;;;-0.40;99.90;;;0.16;83.56;97343.19;5211232;28;20282;-80
2020/12/03 02:33:22;;;;;;;51.17;29.77;;;-0.40;99.90;;;0.20;83.65;97340.19;5214697;28;20227;-79
2020/12/03 02:35:56;;;;;;;47.33;28.93;;;-0.40;99.90;;;0.29;84.42;97348.56;5221342;28;20202;-79
2020/12/03 02:38:29;;;;;;;48.77;28.47;;;-0.30;99.90;;;0.37;84.97;97337.53;5223030;28;20228;-82
2020/12/03 02:41:02;;;;;;;46.50;28.20;;;-0.20;99.90;;;0.39;85.24;97337.66;5217727;28;20280;-81
2020/12/03 02:43:34;;;;;;;50.13;29.43;;;-0.20;99.90;;;0.45;85.59;97329.00;5224985;28;20291;-80
2020/12/03 02:46:06;;;;;;;45.80;28.53;;;-0.10;99.90;;;0.50;85.71;97321.88;5225165;28;20202;-80
2020/12/03 02:48:38;;;;;;;52.17;29.67;;;-0.20;99.90;;;0.50;85.55;97323.50;5222088;28;20193;-81
2020/12/03 02:51:13;;;;;;;50.63;28.27;;;-0.20;99.90;;;0.50;85.89;97318.47;5220485;28;20208;-81
2020/12/03 02:53:45;;;;;;;46.97;29.47;;;-0.10;99.90;;;0.61;85.81;97317.78;5226502;28;20221;-80
2020/12/03 02:56:18;;;;;;;49.80;30.20;;;0.00;99.90;;;0.57;85.67;97314.13;5227970;28;20205;-80
2020/12/03 02:58:50;;;;;;;52.47;31.17;;;0.00;99.90;;;0.60;86.01;97313.47;5230557;28;20699;-80
2020/12/03 03:01:22;;;;;;;49.00;29.30;;;0.00;99.90;;;0.63;86.07;97308.72;5228332;28;20225;-79
2020/12/03 03:03:54;;;;;;;50.77;29.63;;;0.00;99.90;;;0.64;85.52;97310.50;5226736;28;20685;-79
2020/12/03 03:06:26;;;;;;;47.97;29.13;;;-0.10;99.90;;;0.60;85.75;97308.44;5230194;28;20595;-80
2020/12/03 03:08:59;;;;;;;46.10;28.33;;;0.00;99.90;;;0.62;85.84;97310.34;5228847;28;20201;-80
2020/12/03 03:11:32;;;;;;;51.50;30.27;;;0.00;99.90;;;0.69;86.54;97311.78;5230045;28;20603;-81
2020/12/03 03:14:05;;;;;;;50.47;29.50;;;0.00;99.90;;;0.66;86.42;97306.50;5228414;28;20198;-80
2020/12/03 03:16:37;;;;;;;48.43;28.47;;;0.00;99.90;;;0.63;85.40;97306.19;5226181;28;20198;-81
2020/12/03 03:19:09;;;;;;;49.80;30.70;;;0.00;99.90;;;0.62;85.91;97292.75;5228706;28;20195;-81
2020/12/03 03:21:42;;;;;;;50.27;29.70;;;-0.10;99.90;;;0.61;85.30;97300.19;5227858;28;20236;-80
2020/12/03 03:24:15;;;;;;;47.10;28.50;;;0.00;99.90;;;0.63;86.02;97291.13;5229859;28;20641;-81
2020/12/03 03:26:47;;;;;;;50.30;30.90;;;0.00;99.90;;;0.64;86.16;97287.88;5228524;28;20193;-80
2020/12/03 03:29:19;;;;;;;48.20;27.87;;;0.00;99.90;;;0.72;85.91;97279.34;5227448;28;20197;-79
2020/12/03 03:31:51;;;;;;;47.30;28.73;;;0.00;99.90;;;0.71;86.51;97281.72;5228933;28;20223;-81
2020/12/03 03:34:23;;;;;;;50.77;29.30;;;0.00;99.90;;;0.70;87.38;97275.81;5227554;28;20198;-81
2020/12/03 03:36:57;;;;;;;52.33;31.03;;;0.10;99.90;;;0.72;86.71;97269.28;5228066;28;20223;-80
2020/12/03 03:39:29;;;;;;;46.97;28.50;;;0.00;99.90;;;0.74;86.23;97265.25;5227828;28;20205;-80
2020/12/03 03:42:01;;;;;;;45.97;28.20;;;0.00;99.90;;;0.82;86.34;97259.22;5229317;28;20306;-80
2020/12/03 03:44:33;;;;;;;55.27;30.57;;;0.10;99.90;;;0.80;86.09;97258.25;5227293;28;20197;-81
2020/12/03 03:47:05;;;;;;;49.80;29.93;;;0.10;99.90;;;0.78;86.20;97257.22;5226949;28;20195;-81
2020/12/03 03:49:37;;;;;;;52.43;31.90;;;0.10;99.90;;;0.82;86.52;97255.84;5228902;28;20194;-81
2020/12/03 03:52:10;;;;;;;50.30;31.40;;;0.10;99.90;;;0.82;86.62;97249.16;5227777;28;20221;-80
2020/12/03 03:54:42;;;;;;;60.60;34.20;;;0.10;99.90;;;0.81;85.47;97242.38;5229402;28;20672;-79
2020/12/03 03:57:14;;;;;;;60.37;35.53;;;0.10;99.90;;;0.67;84.98;97251.28;5227408;28;20682;-80
2020/12/03 03:59:48;;;;;;;54.43;31.77;;;-0.10;99.90;;;0.71;85.44;97244.88;5228256;28;20676;-80
2020/12/03 04:02:23;;;;;;;50.13;28.77;;;-0.10;99.90;;;0.73;85.91;97240.88;5227359;28;20258;-80
2020/12/03 04:04:55;;;;;;;49.67;29.87;;;0.00;99.90;;;0.76;85.69;97228.53;5226003;28;20211;-81
2020/12/03 04:07:28;;;;;;;43.97;28.30;;;-0.10;99.90;;;0.79;85.22;97236.34;5226457;28;20191;-81
2020/12/03 04:10:00;;;;;;;46.23;29.07;;;0.00;99.90;;;0.74;85.81;97231.69;5228391;28;20198;-81
2020/12/03 04:12:32;;;;;;;52.50;29.30;;;0.00;99.90;;;0.75;86.20;97226.78;5217835;28;20754;-81
2020/12/03 04:15:04;;;;;;;50.93;29.77;;;0.00;99.90;;;0.74;86.19;97230.03;5226095;28;20201;-81
2020/12/03 04:17:36;;;;;;;48.30;28.77;;;0.00;99.90;;;0.82;86.27;97234.09;5227248;28;20247;-80
2020/12/03 04:20:16;;;;;;;45.87;29.07;;;0.10;99.90;;;0.90;86.08;97235.59;5219626;28;20204;-80
2020/12/03 04:22:49;;;;;;;47.23;29.47;;;0.10;99.90;;;0.91;86.21;97231.44;5226213;28;20215;-81
2020/12/03 04:25:21;;;;;;;50.50;29.37;;;0.10;99.90;;;0.91;85.92;97226.41;5226761;28;20195;-80
2020/12/03 04:27:53;;;;;;;45.03;29.13;;;0.10;99.90;;;0.90;85.43;97229.69;5228559;28;20197;-81
2020/12/03 04:30:25;;;;;;;49.30;31.07;;;0.10;99.90;;;0.85;86.14;97234.34;5225940;28;20201;-81
2020/12/03 04:32:57;;;;;;;46.77;29.50;;;0.10;99.90;;;0.89;85.57;97233.84;5225541;28;20225;-81
2020/12/03 04:35:29;;;;;;;45.50;28.27;;;0.10;99.90;;;0.90;85.83;97230.56;5226816;28;20197;-81
2020/12/03 04:38:02;;;;;;;47.83;29.20;;;0.10;99.90;;;0.90;85.79;97235.59;5222363;28;20225;-81
2020/12/03 04:40:37;;;;;;;50.60;29.77;;;0.10;99.90;;;0.88;86.18;97232.06;5224064;28;20193;-80
2020/12/03 04:43:22;;;;;;;45.77;29.20;;;0.10;99.90;;;0.88;86.21;97228.69;5226625;28;20227;-81
2020/12/03 04:46:00;;;;;;;48.17;28.27;;;0.10;99.90;;;0.92;86.59;97229.81;5226287;28;20202;-82
2020/12/03 04:49:27;;;;;;;48.93;29.57;;;0.10;99.90;;;0.94;86.08;97235.88;5226756;28;20189;-81
2020/12/03 04:52:37;;;;;;;50.73;30.07;;;0.10;99.90;;;0.90;86.05;97235.59;5162372;28;20228;-81
2020/12/03 04:55:23;;;;;;;46.03;27.30;;;0.10;99.90;;;0.94;85.99;97238.38;5141827;28;20582;-81
2020/12/03 04:58:08;;;;;;;45.57;29.10;;;0.20;99.90;;;0.93;85.83;97231.59;5220871;28;20222;-82
2020/12/03 05:00:45;;;;;;;44.73;28.07;;;0.20;99.90;;;0.94;85.83;97223.28;5227483;28;20197;-80
2020/12/03 05:04:04;;;;;;;48.70;30.10;;;0.20;99.90;;;0.99;85.73;97219.53;5218413;28;20641;-80
2020/12/03 05:06:46;;;;;;;46.77;28.47;;;0.20;99.90;;;0.97;86.24;97218.50;5221384;28;20193;-80
2020/12/03 05:09:25;;;;;;;47.40;29.27;;;0.20;99.90;;;0.96;86.07;97216.75;5227136;28;20207;-81
2020/12/03 05:12:11;;;;;;;47.20;28.03;;;0.20;99.90;;;0.94;86.42;97211.59;5226064;28;20312;-81
2020/12/03 05:14:52;;;;;;;46.60;28.23;;;0.20;99.90;;;0.98;86.77;97202.69;5228089;28;20199;-81
2020/12/03 05:17:37;;;;;;;44.10;27.30;;;0.20;99.90;;;1.01;85.81;97205.44;5225801;28;20240;-81
2020/12/03 05:20:38;;;;;;;46.60;29.20;;;0.20;99.90;;;1.02;86.22;97204.69;5225096;28;20202;-82
2020/12/03 05:23:16;;;;;;;46.90;27.90;;;0.20;99.90;;;1.01;86.09;97207.97;5227349;28;20231;-81
2020/12/03 05:25:52;;;;;;;47.50;29.13;;;0.20;99.90;;;1.00;85.96;97201.16;5222539;28;20213;-81
2020/12/03 05:28:46;;;;;;;47.03;28.73;;;0.20;99.90;;;0.96;86.01;97200.03;5227276;28;20186;-80
2020/12/03 05:31:32;;;;;;;44.43;28.33;;;0.20;99.90;;;0.98;86.11;97197.66;5225073;28;20227;-80
2020/12/03 05:34:10;;;;;;;46.03;27.63;;;0.20;99.90;;;1.01;86.06;97181.16;5222785;28;20207;-80
2020/12/03 05:36:58;;;;;;;46.43;27.80;;;0.20;99.90;;;0.98;85.42;97180.03;5216018;28;20202;-80
2020/12/03 05:39:35;;;;;;;46.50;28.33;;;0.20;99.90;;;0.97;85.34;97178.25;5226373;28;20198;-79
2020/12/03 05:42:10;;;;;;;46.07;27.73;;;0.20;99.90;;;0.96;86.09;97176.50;5226874;28;20241;-80
2020/12/03 05:44:50;;;;;;;44.83;27.77;;;0.20;99.90;;;0.96;85.60;97179.91;5221385;28;20663;-80
2020/12/03 05:47:27;;;;;;;47.33;28.47;;;0.20;99.90;;;0.98;85.65;97172.50;5217374;28;20206;-81
2020/12/03 05:50:03;;;;;;;51.90;28.97;;;0.20;99.90;;;1.02;85.65;97172.84;5215394;28;20205;-80
2020/12/03 05:52:36;;;;;;;46.67;27.57;;;0.20;99.90;;;0.94;85.57;97178.00;5216414;28;20227;-81
2020/12/03 05:55:11;;;;;;;50.07;28.20;;;0.20;99.90;;;0.95;86.16;97182.31;5227049;28;20578;-81
2020/12/03 05:57:45;;;;;;;47.83;28.07;;;0.20;99.90;;;1.00;85.42;97171.88;5226035;28;20226;-81
2020/12/03 06:00:24;;;;;;;48.27;28.17;;;0.20;99.90;;;1.02;86.38;97169.44;5222059;28;20200;-81
2020/12/03 06:03:27;;;;;;;49.37;28.43;;;0.20;99.90;;;1.03;85.73;97168.69;5220829;28;20310;-80
2020/12/03 06:06:34;;;;;;;48.13;28.83;;;0.20;99.90;;;1.06;86.20;97166.41;5218816;28;20207;-81
2020/12/03 06:09:22;;;;;;;48.23;27.73;;;0.30;99.90;;;1.06;86.19;97161.38;5225627;28;20260;-82
2020/12/03 06:12:13;;;;;;;50.77;28.97;;;0.30;99.90;;;1.08;86.25;97160.75;5225557;28;20242;-79
2020/12/03 06:15:02;;;;;;;46.17;26.80;;;0.20;99.90;;;1.11;85.86;97150.06;5225719;28;20314;-80
2020/12/03 06:18:02;;;;;;;45.17;27.07;;;0.20;99.90;;;1.10;85.60;97143.28;5218843;28;20618;-80
2020/12/03 06:20:49;;;;;;;46.37;27.83;;;0.30;99.90;;;1.14;85.43;97142.78;5221754;28;20696;-80
2020/12/03 06:23:44;;;;;;;46.33;28.33;;;0.30;99.90;;;1.12;85.41;97135.13;5219091;28;20222;-80
2020/12/03 06:26:49;;;;;;;47.43;27.70;;;0.30;99.90;;;1.11;85.82;97150.06;5224959;28;20196;-79
2020/12/03 06:29:41;;;;;;;49.27;27.60;;;0.30;99.90;;;1.11;85.71;97148.44;5213582;28;20197;-81
2020/12/03 06:32:43;;;;;;;42.87;27.97;;;0.30;99.90;;;1.16;85.92;97141.25;5227493;28;20706;-82
2020/12/03 06:35:30;;;;;;;45.63;27.43;;;0.30;99.90;;;1.13;85.67;97146.06;5229626;28;20685;-81
2020/12/03 06:38:15;;;;;;;45.03;27.33;;;0.20;99.90;;;1.09;85.88;97139.03;5228022;28;20223;-81
2020/12/03 06:40:57;;;;;;;51.87;29.73;;;0.30;99.90;;;1.10;86.16;97148.31;5223961;28;20209;-82
2020/12/03 06:43:36;;;;;;;49.33;30.60;;;0.30;99.90;;;1.08;86.49;97142.28;5210406;28;20680;-81
2020/12/03 06:46:46;;;;;;;49.53;31.27;;;0.30;99.90;;;1.08;86.12;97148.19;5229773;28;20203;-80
2020/12/03 06:49:45;;;;;;;47.97;29.53;;;0.30;99.90;;;1.09;86.57;97151.59;5229469;28;20192;-80
2020/12/03 06:52:49;;;;;;;48.70;29.20;;;0.20;99.90;;;1.10;85.83;97144.16;5230143;28;20217;-81
2020/12/03 06:56:03;;;;;;;48.43;29.43;;;0.20;99.90;;;1.09;85.88;97144.06;5230205;28;20202;-81
2020/12/03 06:59:02;;;;;;;47.50;28.33;;;0.20;99.90;;;1.10;86.06;97153.34;5225728;28;20246;-81
2020/12/03 07:02:13;;;;;;;51.97;29.60;;;0.20;99.90;;;1.08;85.78;97154.84;5228935;28;20230;-81
2020/12/03 07:05:34;;;;;;;51.50;30.10;;;0.20;99.90;;;1.02;85.83;97145.16;5220295;28;20210;-81
2020/12/03 07:08:43;;;;;;;53.07;31.10;;;0.20;99.90;;;0.97;86.38;97141.41;5202509;28;20195;-81
2020/12/03 07:11:45;;;;;;;51.63;31.77;;;0.20;99.90;;;0.96;86.26;97134.63;5221398;28;20208;-81
2020/12/03 07:15:17;;;;;;;52.13;30.47;;;0.20;99.90;;;0.99;86.40;97136.50;5208900;28;20457;-81
2020/12/03 07:18:34;;;;;;;49.57;29.53;;;0.20;99.90;;;1.00;86.15;97135.72;5223689;28;20218;-82
2020/12/03 07:21:48;;;;;;;54.77;30.73;;;0.20;99.90;;;1.04;86.91;97130.22;5227796;28;20277;-82
2020/12/03 07:24:25;;;;;;;50.73;30.17;;;0.20;99.90;;;1.00;86.70;97130.69;5218281;28;20588;-82
2020/12/03 07:27:24;;;;;;;52.33;29.27;;;0.20;99.90;;;1.01;86.58;97127.44;5229849;28;20190;-81
2020/12/03 07:29:59;;;;;;;51.70;30.13;;;0.20;99.90;;;1.01;86.25;97132.47;5231274;28;20285;-80
2020/12/03 07:32:50;;;;;;;48.50;29.57;;;0.20;99.90;;;0.86;86.20;97117.91;5231815;28;20222;-80
2020/12/03 07:35:31;;;;;;;48.77;29.43;;;0.10;99.90;;;0.92;86.05;97126.69;5229830;28;20213;-80
2020/12/03 07:38:16;;;;;;;51.90;30.13;;;0.20;99.90;;;1.17;85.19;97122.88;5223554;28;20226;-81
2020/12/03 07:40:52;;;;;;;50.03;29.93;;;0.30;99.90;;;1.04;85.05;97127.69;5226290;28;20279;-82
2020/12/03 07:43:37;;;;;;;50.30;29.43;;;0.20;99.90;;;1.03;84.54;97129.34;5226715;28;20300;-83
2020/12/03 07:46:37;;;;;;;47.03;27.90;;;0.10;99.90;;;1.03;84.91;97131.84;5221234;28;20619;-82
2020/12/03 07:49:09;;;;;;;48.93;28.03;;;0.20;99.90;;;0.93;85.00;97130.97;5228001;28;20207;-81
2020/12/03 07:52:23;;;;;;;46.40;28.50;;;0.10;99.90;;;0.85;85.39;97126.19;5221051;28;20239;-80
2020/12/03 07:55:37;;;;;;;49.60;29.53;;;0.10;99.90;;;0.92;85.54;97116.63;5222212;28;20205;-82
2020/12/03 07:58:32;;;;;;;49.63;29.33;;;0.10;99.90;;;0.92;85.16;97121.66;5219082;28;20221;-82
2020/12/03 08:01:05;;;;;;;53.03;29.67;;;0.20;99.90;;;0.93;85.79;97120.91;5227391;28;20204;-81
2020/12/03 08:03:46;;;;;;;48.83;28.67;;;0.20;99.90;;;0.99;86.21;97111.34;5230947;28;20202;-82
2020/12/03 08:06:23;;;;;;;51.07;30.17;;;0.20;99.90;;;0.93;85.81;97113.38;5228388;28;20201;-81
2020/12/03 08:09:23;;;;;;;53.90;30.70;;;0.20;99.90;;;0.90;85.58;97109.84;5224285;28;20207;-81
2020/12/03 08:12:09;;;;;;;51.07;31.10;;;0.20;99.90;;;0.89;85.70;97110.59;5226034;28;20780;-80
2020/12/03 08:14:45;;;;;;;49.30;30.53;;;0.20;99.90;;;0.98;86.18;97112.13;5225192;28;20195;-82
2020/12/03 08:17:44;;;;;;;51.70;31.87;;;0.20;99.90;;;1.11;85.45;97104.78;5220960;28;20512;-81
2020/12/03 08:20:37;;;;;;;49.10;28.87;;;0.30;99.90;;;1.04;85.84;97097.50;5225141;28;20594;-81
2020/12/03 08:23:13;;;;;;;50.87;29.90;;;0.30;99.90;;;1.12;85.82;97091.47;5225279;28;20236;-80
2020/12/03 08:25:47;;;;;;;49.17;29.13;;;0.40;99.90;;;1.05;85.20;97092.59;5229771;28;20204;-80
2020/12/03 08:28:26;;;;;;;51.30;28.30;;;0.30;99.90;;;1.11;85.83;97083.00;5229371;28;20227;-80
2020/12/03 08:30:58;;;;;;;55.47;32.10;;;0.40;99.90;;;1.20;85.58;97087.91;5228737;28;20206;-80
2020/12/03 08:33:32;;;;;;;54.17;30.50;;;0.40;99.90;;;1.28;86.24;97089.38;5224330;28;20587;-80
2020/12/03 08:36:07;;;;;;;52.57;31.20;;;0.50;99.90;;;1.31;85.16;97088.75;5230729;28;20196;-80
2020/12/03 08:38:40;;;;;;;44.73;29.20;;;0.50;99.90;;;1.39;86.11;97081.81;5227063;28;20214;-80
2020/12/03 08:41:17;;;;;;;46.00;29.30;;;0.60;99.90;;;1.52;84.50;97079.53;5228981;28;20195;-80
2020/12/03 08:43:53;;;;;;;47.63;28.87;;;0.60;99.90;;;1.50;84.57;97083.56;5226417;28;20241;-81
2020/12/03 08:46:31;;;;;;;45.47;28.47;;;0.60;99.90;;;1.58;84.40;97074.97;5230408;28;20203;-81
2020/12/03 08:49:05;;;;;;;48.70;29.07;;;0.70;99.90;;;1.53;83.87;97073.72;5231622;28;20666;-80
2020/12/03 08:51:39;;;;;;;44.27;27.70;;;0.70;99.90;;;1.55;84.65;97062.13;5230032;28;20218;-81
2020/12/03 08:54:11;;;;;;;44.10;28.87;;;0.70;99.90;;;1.63;84.97;97058.59;5228930;28;20200;-82
2020/12/03 08:56:45;;;;;;;43.67;28.70;;;0.70;99.90;;;1.66;84.55;97053.78;5228390;28;20688;-80
2020/12/03 08:59:19;;;;;;;50.43;29.83;;;0.80;99.90;;;1.64;83.84;97055.28;5229180;28;20222;-81
2020/12/03 09:02:01;;;;;;;47.70;29.50;;;0.80;99.90;;;1.59;84.02;97043.97;5226925;28;20231;-81
2020/12/03 09:04:45;;;;;;;45.57;27.87;;;0.70;99.90;;;1.52;84.40;97030.03;5221724;28;20200;-81
2020/12/03 09:07:19;;;;;;;47.03;29.70;;;0.70;99.90;;;1.60;84.81;97037.28;5225781;28;20201;-80
2020/12/03 09:09:52;;;;;;;42.63;28.00;;;0.70;99.90;;;1.68;84.41;97032.09;5230265;28;20222;-81
2020/12/03 09:12:34;;;;;;;43.13;27.30;;;0.80;99.90;;;1.76;84.77;97028.53;5226908;28;20219;-79
2020/12/03 09:15:08;;;;;;;43.53;27.00;;;0.90;99.90;;;1.73;84.77;97034.97;5225729;28;20202;-81
2020/12/03 09:17:49;;;;;;;43.63;27.13;;;0.90;99.90;;;1.75;84.88;97030.94;5211142;28;20246;-82
2020/12/03 09:20:22;;;;;;;43.47;28.17;;;0.90;99.90;;;1.83;83.59;97029.00;5214236;28;20201;-80
2020/12/03 09:22:54;;;;;;;43.10;27.83;;;0.90;99.90;;;1.75;84.04;97020.88;5230143;28;20246;-79
2020/12/03 09:25:26;;;;;;;44.20;27.03;;;0.90;99.90;;;1.76;84.09;97010.03;5228204;28;20204;-79
2020/12/03 09:28:03;;;;;;;44.50;28.30;;;0.90;99.90;;;1.87;84.70;97008.34;5225556;28;20649;-79
2020/12/03 09:30:39;;;;;;;41.47;27.43;;;1.00;99.90;;;2.00;84.41;97005.97;5220602;28;20201;-81
2020/12/03 09:33:16;;;;;;;45.47;28.13;;;1.10;99.90;;;1.99;84.34;96994.13;5225970;28;20220;-80
2020/12/03 09:35:51;;;;;;;45.43;29.50;;;1.10;99.90;;;2.00;83.86;96998.41;5232109;28;20211;-81
2020/12/03 09:38:25;;;;;;;44.43;29.67;;;1.20;99.90;;;2.11;83.72;96990.00;5226430;28;20314;-80
2020/12/03 09:40:57;;;;;;;42.03;26.27;;;1.20;99.90;;;2.13;84.50;96982.56;5231065;28;20215;-80
2020/12/03 09:43:31;;;;;;;38.53;26.97;;;1.30;99.90;;;2.23;83.95;96963.22;5228544;28;20619;-81
2020/12/03 09:46:06;;;;;;;42.47;26.10;;;1.30;99.90;;;2.30;83.30;96964.53;5224344;28;20201;-81
2020/12/03 09:48:41;;;;;;;38.87;25.63;;;1.40;99.90;;;2.34;83.84;96958.06;5220504;28;20201;-80
2020/12/03 09:51:14;;;;;;;39.17;26.10;;;1.50;99.90;;;2.41;83.68;96950.22;5222429;28;20204;-81
2020/12/03 09:53:48;;;;;;;41.33;26.33;;;1.50;99.90;;;2.51;82.80;96957.66;5225224;28;20658;-81
2020/12/03 09:56:20;;;;;;;37.93;26.73;;;1.60;99.90;;;2.57;82.42;96958.09;5214907;28;20205;-81
2020/12/03 09:58:58;;;;;;;36.07;25.23;;;1.70;99.90;;;2.60;82.87;96950.75;5220466;28;20335;-80
2020/12/03 10:01:56;;;;;;;34.03;24.73;;;1.70;99.90;;;2.63;82.28;96943.44;5222626;28;20315;-79
2020/12/03 10:05:13;;;;;;;35.53;24.33;;;1.70;99.90;;;2.65;82.39;96944.41;5222210;28;20565;-81
2020/12/03 10:08:25;;;;;;;34.43;23.47;;;1.70;99.90;;;2.76;81.49;96940.13;5225729;28;20292;-82
2020/12/03 10:11:31;;;;;;;34.90;24.47;;;1.80;99.90;;;2.73;81.40;96922.25;5211838;28;20568;-81
2020/12/03 10:14:27;;;;;;;32.40;22.73;;;1.80;99.90;;;2.69;81.79;96916.13;5223184;28;20669;-79
2020/12/03 10:17:05;;;;;;;34.83;23.60;;;1.80;99.90;;;2.67;81.78;96905.03;5222401;28;20216;-81
2020/12/03 10:19:41;;;;;;;31.13;22.00;;;1.70;99.90;;;2.68;82.49;96904.25;5224802;28;20315;-77
2020/12/03 10:22:28;;;;;;;31.87;21.67;;;1.70;99.90;;;2.68;82.18;96903.38;5225540;28;20722;-81
2020/12/03 10:25:16;;;;;;;31.23;22.23;;;1.80;99.90;;;2.74;82.85;96880.25;5212118;28;20201;-81
2020/12/03 10:28:00;;;;;;;29.73;21.87;;;1.80;99.90;;;2.83;81.99;96875.84;5224396;28;20197;-81
2020/12/03 10:30:37;;;;;;;28.03;22.43;;;1.90;99.90;;;2.82;81.88;96874.09;5216878;28;20211;-81
2020/12/03 10:33:15;;;;;;;31.57;22.13;;;1.90;99.90;;;2.94;82.45;96870.78;5223917;28;20231;-82
2020/12/03 10:35:49;;;;;;;30.97;23.33;;;1.90;99.90;;;2.86;80.08;96871.91;5225095;28;20216;-80
2020/12/03 10:38:25;;;;;;;29.70;22.27;;;1.90;99.90;;;2.97;81.23;96875.16;5220385;28;20217;-79
2020/12/03 10:41:00;;;;;;;28.33;21.13;;;2.00;99.90;;;3.06;81.14;96865.72;5224970;28;20205;-80
2020/12/03 10:43:36;;;;;;;28.20;20.27;;;2.10;99.90;;;3.09;79.47;96858.38;5229165;28;20295;-80
2020/12/03 10:46:16;;;;;;;24.93;20.17;;;2.10;99.90;;;3.23;77.97;96854.25;5221422;28;20195;-80
2020/12/03 10:48:52;;;;;;;24.53;18.87;;;2.20;99.90;;;3.25;78.27;96857.75;5222950;28;20204;-79
2020/12/03 10:51:24;;;;;;;23.70;18.13;;;2.20;99.90;;;3.21;78.15;96853.28;5226737;28;20300;-80
2020/12/03 10:53:56;;;;;;;20.20;16.70;;;2.20;99.90;;;3.30;76.66;96850.50;5224809;28;20206;-82
2020/12/03 10:56:30;;;;;;;20.13;17.03;;;2.20;99.90;;;3.30;77.12;96842.94;5227560;28;20198;-81
2020/12/03 10:59:38;;;;;;;22.73;17.70;;;2.30;99.90;;;3.41;77.02;96831.91;5223156;28;20225;-81
2020/12/03 11:02:36;;;;;;;21.90;17.83;;;2.40;99.90;;;3.48;76.90;96835.72;5224933;28;20617;-81
2020/12/03 11:05:11;;;;;;;19.67;16.50;;;2.50;99.90;;;3.56;76.53;96845.56;5228239;28;20569;-79
2020/12/03 11:07:53;;;;;;;19.93;17.93;;;2.60;99.90;;;3.58;74.68;96828.00;5214848;28;20206;-81
2020/12/03 11:10:26;;;;;;;18.43;16.07;;;2.60;99.90;;;3.66;73.65;96824.31;5210693;28;20209;-79
2020/12/03 11:13:00;;;;;;;17.03;15.23;;;2.60;99.90;;;3.69;73.86;96821.09;5209886;28;20219;-80